Station KGXA2 - Kodiak Gull Island, AK Image indicating link to RSS feed of recent meteorological observations for station KGXA2


Conditions at KGXA2 as of
(11:14 pm AKDT on 06/23/2024)
0714 GMT on 06/24/2024:
     

Click on the graph icon in the table below to see a time series plot of the last five days of that observation.

5-day plot - Wind Speed Wind Speed (WSPD): 0 kts
5-day plot - Wind Gust Wind Gust (GST): 4 kts
5-day plot - Air Temperature Air Temperature (ATMP): 57.2 °F
5-day plot - Dew Point Dew Point (DEWP): 49.1 °F
5-day plot - Wind Speed at 10 Meters Wind Speed at 10 meters (WSPD10M): 0 kts
5-day plot - Wind Speed at 20 Meters Wind Speed at 20 meters (WSPD20M): 2 kts
5-day plot -  Wind Speed, Wind Gust and Atmospheric Pressure Combined plot of Wind Speed, Gust, and Air Pressure
Previous observations
TIME
(AKDT)
5-day plot - Wind Direction
WDIR
 
5-day plot - Wind Speed
WSPD
kts
5-day plot - Wind Gust
GST
kts
5-day plot - Wave Height
WVHT
ft
5-day plot - Dominant Wave Period
DPD
sec
5-day plot - Average Wave Period
APD
sec
5-day plot - Mean Wave Direction
MWD
 
5-day plot - Atmospheric Pressure
PRES
in
5-day plot - Pressure Tendency
PTDY
in
5-day plot - Air Temperature
ATMP
°F
5-day plot - Water Temperature
WTMP
°F
5-day plot - Dew Point
DEWP
°F
5-day plot - Salinity
SAL
psu
5-day plot - Visibility
VIS
nmi
5-day plot - Tide (above MLLW)
TIDE
ft
2024-06-23 11:04 pm- 0 3------ 58.6- 49.3---
2024-06-23 10:54 pm- 0 1------ 58.3- 48.9---
2024-06-23 10:44 pm- 0 0------ 58.3- 49.5---
2024-06-23 10:34 pm- 0 1------ 57.6- 48.9---
2024-06-23 10:24 pm- 0 2------ 57.2- 48.9---
2024-06-23 10:14 pm- 0 4------ 56.7- 49.1---
2024-06-23 10:04 pmWSW 1 2------ 56.3- 48.9---
2024-06-23 09:54 pm NW 2 2------ 56.1- 49.1---
2024-06-23 09:44 pm W 2 2------ 55.9- 48.9---
2024-06-23 09:34 pm SW 4 5------ 55.0- 48.6---
2024-06-23 09:24 pmWSW 3 4------ 55.2- 49.1---
2024-06-23 09:14 pm W 3 4------ 55.4- 49.3---
2024-06-23 09:04 pmWNW 3 5------ 55.4- 49.5---
2024-06-23 08:54 pm NW 3 5------ 55.9- 48.9---
2024-06-23 08:44 pmWNW 1 4------ 56.7- 49.6---
2024-06-23 08:34 pmWNW 3 5------ 56.7- 49.3---
2024-06-23 08:24 pm N 3 6------ 57.9- 49.5---
2024-06-23 08:14 pm S 3 6------ 57.7- 49.3---
2024-06-23 08:04 pm S 3 6------ 59.5- 49.8---
2024-06-23 07:54 pmSSW 3 6------ 63.5- 51.1---
2024-06-23 07:44 pm- 0 1------ 65.1- 52.2---
2024-06-23 07:34 pm- 0 2------ 64.4- 51.8---
2024-06-23 07:24 pm- 0 2------ 64.4- 52.2---
2024-06-23 07:14 pm- 0 2------ 63.7- 50.9---
2024-06-23 07:04 pm SW 1 2------ 63.7- 50.4---
2024-06-23 06:54 pm- 0 2------ 63.5- 50.9---
2024-06-23 06:44 pm NW 1 3------ 62.8- 50.5---
2024-06-23 06:34 pm W 1 3------ 62.4- 50.4---
2024-06-23 06:24 pmWSW 3 4------ 61.7- 49.8---
2024-06-23 06:14 pm SW 3 5------ 62.1- 50.0---
2024-06-23 06:04 pmWSW 3 5------ 62.4- 50.2---
2024-06-23 05:54 pmWSW 4 6------ 63.0- 50.2---
2024-06-23 05:44 pmWSW 2 5------ 64.4- 51.1---
2024-06-23 05:34 pmWSW 2 4------ 63.1- 50.4---
2024-06-23 05:24 pmWSW 2 4------ 63.1- 50.5---
2024-06-23 05:14 pm W 2 3------ 62.4- 50.9---
2024-06-23 05:04 pm W 2 3------ 61.5- 50.5---
2024-06-23 04:54 pm W 3 4------ 61.3- 50.5---
2024-06-23 04:44 pm W 2 3------ 62.4- 51.3---
2024-06-23 04:34 pmWSW 3 5------ 62.2- 50.2---
2024-06-23 04:24 pmWSW 3 5------ 62.6- 50.5---
2024-06-23 04:14 pm SW 2 4------ 63.3- 50.9---
2024-06-23 03:54 pmSSW 2 5------ 62.6- 50.9---
2024-06-23 03:44 pmSSW 3 5------ 62.6- 50.4---
2024-06-23 03:34 pm SW 2 3------ 63.5- 50.7---
2024-06-23 03:24 pm NW 1 3------ 63.9- 51.3---
2024-06-23 03:14 pm- 0 2------ 63.0- 51.1---
2024-06-23 03:04 pm SW 2 3------ 62.1- 50.5---
2024-06-23 02:54 pm W 1 3------ 61.9- 50.7---
2024-06-23 02:44 pm W 2 3------ 61.0- 50.5---
2024-06-23 02:34 pm W 2 4------ 61.0- 50.4---
2024-06-23 02:24 pmWSW 3 4------ 60.6- 50.0---
2024-06-23 02:14 pmWSW 4 5------ 60.6- 50.0---
2024-06-23 02:04 pmWSW 2 4------ 61.9- 50.2---
2024-06-23 01:54 pm W 2 4------ 61.7- 50.7---
2024-06-23 01:44 pm W 2 4------ 60.3- 50.4---
2024-06-23 01:34 pm SW 4 5------ 59.4- 49.6---
2024-06-23 01:24 pm SW 4 5------ 59.7- 49.6---
2024-06-23 01:14 pm SW 3 5------ 61.0- 50.0---
2024-06-23 01:04 pm W 2 3------ 61.9- 51.3---
2024-06-23 12:54 pm SW 2 3------ 60.1- 49.6---
2024-06-23 12:44 pm SW 2 4------ 60.3- 49.6---
2024-06-23 12:34 pmWSW 2 3------ 61.2- 50.4---
2024-06-23 12:24 pm W 2 3------ 60.6- 50.2---
2024-06-23 12:14 pm W 2 4------ 60.4- 50.2---
2024-06-23 12:04 pm W 2 4------ 60.1- 50.2---
2024-06-23 11:54 am W 1 5------ 60.3- 49.8---
2024-06-23 11:44 am- 0 3------ 62.2- 50.5---
2024-06-23 11:34 am- 0 4------ 63.9- 50.9---
2024-06-23 11:24 am- 0 5------ 63.7- 50.7---
2024-06-23 11:14 am SW 2 6------ 65.8- 52.3---
2024-06-23 11:04 am- 0 2------ 66.2- 52.5---
2024-06-23 10:54 amSSW 1 4------ 66.2- 52.5---
2024-06-23 10:44 amSSE 1 3------ 66.4- 53.4---
2024-06-23 10:34 am- 0 2------ 66.0- 53.2---
2024-06-23 10:24 amSSW 2 3------ 64.4- 51.6---
2024-06-23 10:14 amSSW 2 3------ 64.9- 51.8---
2024-06-23 09:54 am- 0 2------ 64.9- 52.7---
2024-06-23 09:44 am- 0 2------ 63.9- 52.2---
2024-06-23 09:34 am S 1 2------ 63.0- 51.6---
2024-06-23 09:24 am- 0 1------ 62.6- 51.6---
2024-06-23 09:14 am- 0 2------ 60.4- 49.6---
2024-06-23 09:04 am W 2 3------ 58.8- 48.9---
2024-06-23 08:54 amWSW 2 3------ 59.0- 49.1---
2024-06-23 08:44 amWSW 2 3------ 59.9- 49.6---
2024-06-23 08:35 am- 0 1------ 61.2- 51.3---
2024-06-23 08:24 am- 0 2------ 59.9- 50.4---
2024-06-23 08:14 amNNE 1 3------ 59.9- 49.6---
2024-06-23 08:04 amENE 1 3------ 60.4- 50.0---
2024-06-23 07:54 am- 0 1------ 59.5- 49.6---
2024-06-23 07:44 am- 0 1------ 58.5- 49.3---
2024-06-23 07:34 am S 1 2------ 57.6- 48.6---
2024-06-23 07:24 am- 0 2------ 57.9- 48.7---
2024-06-23 07:14 am- 0 2------ 58.1- 48.9---
2024-06-23 07:04 am S 2 3------ 58.3- 48.9---
2024-06-23 06:54 am- 0 2------ 58.5- 49.1---
2024-06-23 06:44 am NE 1 4------ 58.1- 48.9---
2024-06-23 06:34 am NW 1 3------ 58.1- 48.7---
2024-06-23 06:24 am W 2 3------ 57.9- 48.9---
2024-06-23 06:14 am- 0 2------ 57.0- 48.4---
2024-06-23 05:54 am S 2 3------ 57.7- 48.7---
2024-06-23 05:44 amSSW 2 4------ 57.2- 48.7---
2024-06-23 05:34 amSSW 1 4------ 59.4- 49.5---
2024-06-23 05:24 am SE 1 2------ 59.7- 49.8---
2024-06-23 05:14 am- 0 2------ 59.9- 49.6---
2024-06-23 05:04 am E 1 2------ 59.5- 49.6---
2024-06-23 04:54 am- 0 1------ 58.8- 49.8---
2024-06-23 04:44 am NW 1 2------ 58.3- 49.3---
2024-06-23 04:34 am- 0 2------ 58.5- 49.5---
2024-06-23 04:24 am- 0 2------ 58.5- 49.5---
2024-06-23 04:14 amENE 1 3------ 58.5- 49.5---
2024-06-23 04:04 am- 0 1------ 58.5- 49.5---
2024-06-23 03:54 am S 1 3------ 58.3- 49.3---
2024-06-23 03:44 amESE 2 3------ 58.6- 49.3---
2024-06-23 03:34 am E 3 4------ 57.9- 49.1---
2024-06-23 03:24 amENE 2 3------ 58.1- 48.9---
2024-06-23 03:14 am- 0 2------ 58.5- 49.1---
2024-06-23 03:04 am SW 2 2------ 57.9- 48.9---
2024-06-23 02:54 am SW 1 2------ 58.6- 49.1---
2024-06-23 02:44 amWSW 2 3------ 59.2- 49.5---
2024-06-23 02:34 am- 0 2------ 59.5- 50.0---
2024-06-23 02:24 am- 0 1------ 59.4- 50.0---
2024-06-23 02:14 amNNE 2 3------ 59.4- 49.5---
2024-06-23 02:04 am S 1 2------ 59.4- 49.5---
2024-06-23 01:54 am SW 1 4------ 59.4- 49.3---
2024-06-23 01:44 am- 0 2------ 60.3- 49.6---
2024-06-23 01:34 am S 1 3------ 60.6- 50.0---
2024-06-23 01:24 am S 2 4------ 61.3- 50.2---
2024-06-23 01:14 amESE 2 4------ 61.2- 50.2---
2024-06-23 12:54 am NE 2 4------ 61.2- 49.8---
2024-06-23 12:44 am NE 2 3------ 62.1- 50.2---
2024-06-23 12:34 am N 2 4------ 62.2- 50.2---
2024-06-23 12:24 am NW 4 8------ 61.5- 50.2---
2024-06-23 12:15 am W 4 8------ 62.4- 50.2---
2024-06-23 12:04 am SW 2 5------ 63.0- 50.4---
2024-06-22 11:54 pm SW 1 3------ 63.5- 50.7---
2024-06-22 11:44 pmSSW 2 3------ 63.9- 50.9---
2024-06-22 11:34 pm N 2 5------ 64.2- 50.9---
2024-06-22 11:24 pmNNW 3 7------ 63.5- 50.7---
2024-06-22 11:14 pm NW 2 7------ 64.2- 50.9---
2024-06-22 11:04 pm NW 1 6------ 66.6- 51.3---
2024-06-22 10:54 pm- 0 4------ 66.6- 51.3---